createdAt,value
2019-02-28T00:01:36.555Z,64.17
2019-02-28T00:04:04.142Z,58.30
2019-02-28T00:06:31.188Z,64.67
2019-02-28T00:08:58.267Z,62.00
2019-02-28T00:11:25.429Z,63.27
2019-02-28T00:13:55.989Z,58.77
2019-02-28T00:16:22.013Z,65.50
2019-02-28T00:18:49.828Z,60.33
2019-02-28T00:21:17.748Z,50.10
2019-02-28T00:23:44.842Z,51.13
2019-02-28T00:26:12.380Z,55.90
2019-02-28T00:28:39.468Z,57.63
2019-02-28T00:31:06.557Z,51.23
2019-02-28T00:33:39.910Z,55.37
2019-02-28T00:36:06.964Z,52.23
2019-02-28T00:38:34.041Z,54.77
2019-02-28T00:41:01.088Z,44.47
2019-02-28T00:43:28.248Z,59.43
2019-02-28T00:45:55.332Z,56.70
2019-02-28T00:48:22.463Z,68.80
2019-02-28T00:50:49.563Z,62.87
2019-02-28T00:53:16.809Z,61.87
2019-02-28T00:55:45.957Z,68.07
2019-02-28T00:58:13.961Z,51.23
2019-02-28T01:00:41.054Z,80.80
2019-02-28T01:03:08.104Z,104.90
2019-02-28T01:05:36.643Z,101.73
2019-02-28T01:08:04.152Z,99.30
2019-02-28T01:10:31.217Z,97.77
2019-02-28T01:12:58.269Z,86.17
2019-02-28T01:15:25.342Z,93.07
2019-02-28T01:17:52.428Z,91.63
2019-02-28T01:20:19.530Z,81.00
2019-02-28T01:22:50.474Z,84.27
2019-02-28T01:25:17.625Z,78.50
2019-02-28T01:27:44.674Z,78.47
2019-02-28T01:30:12.456Z,84.10
2019-02-28T01:32:39.532Z,82.10
2019-02-28T01:35:06.986Z,78.57
2019-02-28T01:37:34.017Z,73.83
2019-02-28T01:40:04.398Z,77.13
2019-02-28T01:42:30.247Z,75.53
2019-02-28T01:44:57.265Z,74.73
2019-02-28T01:47:24.354Z,74.20
2019-02-28T01:49:51.424Z,73.03
2019-02-28T01:52:18.481Z,98.70
2019-02-28T01:54:45.604Z,74.83
2019-02-28T01:57:12.778Z,62.13
2019-02-28T01:59:39.825Z,73.63
2019-02-28T02:02:07.028Z,78.27
2019-02-28T02:04:34.108Z,67.30
2019-02-28T02:07:01.143Z,69.17
2019-02-28T02:09:28.533Z,70.10
2019-02-28T02:11:58.024Z,69.50
2019-02-28T02:14:31.260Z,63.87
2019-02-28T02:17:01.250Z,63.70
2019-02-28T02:19:27.265Z,73.93
2019-02-28T02:21:54.356Z,79.80
2019-02-28T02:24:24.309Z,77.13
2019-02-28T02:26:52.256Z,70.97
2019-02-28T02:29:19.558Z,62.50
2019-02-28T02:31:46.613Z,74.37
2019-02-28T02:34:13.694Z,70.50
2019-02-28T02:36:40.755Z,77.43
2019-02-28T02:39:08.216Z,73.53
2019-02-28T02:41:35.272Z,69.20
2019-02-28T02:44:02.400Z,75.17
2019-02-28T02:46:29.535Z,77.00
2019-02-28T02:48:56.592Z,65.43
2019-02-28T02:51:23.672Z,83.40
2019-02-28T02:54:18.092Z,74.17
2019-02-28T02:56:41.990Z,70.83
2019-02-28T02:59:27.348Z,72.30
2019-02-28T03:01:56.239Z,69.80
2019-02-28T03:04:23.588Z,73.80
2019-02-28T03:06:50.789Z,74.70
2019-02-28T03:09:18.140Z,73.17
2019-02-28T03:11:46.799Z,71.87
2019-02-28T03:14:16.460Z,72.20
2019-02-28T03:16:42.897Z,69.87
2019-02-28T03:19:09.949Z,76.87
2019-02-28T03:21:37.040Z,68.97
2019-02-28T03:24:16.352Z,74.07
2019-02-28T03:26:44.744Z,75.50
2019-02-28T03:29:11.791Z,74.40
2019-02-28T03:31:38.876Z,68.87
2019-02-28T03:34:13.083Z,70.57
2019-02-28T03:36:34.907Z,79.57
2019-02-28T03:39:03.600Z,74.67
2019-02-28T03:41:30.655Z,82.97
2019-02-28T03:43:57.703Z,74.77
2019-02-28T03:46:24.800Z,74.43
2019-02-28T03:48:51.869Z,80.77
2019-02-28T03:51:19.012Z,85.57
2019-02-28T03:53:46.144Z,80.43
2019-02-28T03:56:14.645Z,90.47
2019-02-28T03:58:43.152Z,90.53
2019-02-28T04:01:47.320Z,83.77
2019-02-28T04:04:14.380Z,84.87
2019-02-28T04:06:41.560Z,85.40
2019-02-28T04:09:09.124Z,88.10
2019-02-28T04:11:36.286Z,97.17
2019-02-28T04:14:03.429Z,87.83
2019-02-28T04:16:30.528Z,99.87
2019-02-28T04:18:57.605Z,103.13
2019-02-28T04:21:24.703Z,95.77
2019-02-28T04:23:51.845Z,91.63
2019-02-28T04:26:18.891Z,98.47
2019-02-28T04:28:45.986Z,88.97
2019-02-28T04:31:18.904Z,107.67
2019-02-28T04:33:44.130Z,101.33
2019-02-28T04:36:11.229Z,103.97
2019-02-28T04:38:38.288Z,103.70
2019-02-28T04:41:05.449Z,104.13
2019-02-28T04:43:32.560Z,105.07
2019-02-28T04:45:59.619Z,112.57
2019-02-28T04:48:26.685Z,106.73
2019-02-28T04:50:53.775Z,125.13
2019-02-28T04:53:20.830Z,111.43
2019-02-28T04:55:47.901Z,115.53
2019-02-28T04:58:15.009Z,111.17
2019-02-28T05:00:42.084Z,115.40
2019-02-28T05:03:09.153Z,127.00
2019-02-28T05:05:36.252Z,119.53
2019-02-28T05:08:05.709Z,118.57
2019-02-28T05:10:35.874Z,112.37
2019-02-28T05:13:02.982Z,115.63
2019-02-28T05:15:30.044Z,111.07
2019-02-28T05:17:57.104Z,111.53
2019-02-28T05:20:24.193Z,124.30
2019-02-28T05:22:51.317Z,122.87
2019-02-28T05:25:18.846Z,124.83
2019-02-28T05:28:06.710Z,127.53
2019-02-28T05:30:33.539Z,118.07
2019-02-28T05:33:00.642Z,117.27
2019-02-28T05:35:27.711Z,116.57
2019-02-28T05:37:54.857Z,122.73
2019-02-28T05:40:23.710Z,137.60
2019-02-28T05:42:50.885Z,117.07
2019-02-28T05:45:17.985Z,124.40
2019-02-28T05:47:47.189Z,123.20
2019-02-28T05:50:16.756Z,134.50
2019-02-28T05:52:43.004Z,138.67
2019-02-28T05:55:10.059Z,133.10
2019-02-28T05:57:39.459Z,133.90
2019-02-28T06:00:06.940Z,138.97
2019-02-28T06:02:34.042Z,132.63
2019-02-28T06:05:01.425Z,139.90
2019-02-28T06:07:29.481Z,130.63
2019-02-28T06:09:56.864Z,135.87
2019-02-28T06:12:24.053Z,141.17
2019-02-28T06:14:51.112Z,140.83
2019-02-28T06:17:20.832Z,132.87
2019-02-28T06:19:48.961Z,129.67
2019-02-28T06:22:16.053Z,133.10
2019-02-28T06:24:44.830Z,143.97
2019-02-28T06:27:54.586Z,133.83
2019-02-28T06:30:21.777Z,140.00
2019-02-28T06:32:48.825Z,133.07
2019-02-28T06:35:17.753Z,140.80
2019-02-28T06:37:45.018Z,137.60
2019-02-28T06:40:12.654Z,133.03
2019-02-28T06:42:39.752Z,133.23
2019-02-28T06:45:11.802Z,137.40
2019-02-28T06:47:39.090Z,134.03
2019-02-28T06:50:06.928Z,133.10
2019-02-28T06:52:34.001Z,136.43
2019-02-28T06:55:01.050Z,126.57
2019-02-28T06:57:28.293Z,140.20
2019-02-28T06:59:55.407Z,130.73
2019-02-28T07:02:22.477Z,134.60
2019-02-28T07:04:50.576Z,123.50
2019-02-28T07:07:18.747Z,134.87
2019-02-28T07:09:50.399Z,127.90
2019-02-28T07:12:17.506Z,140.03
2019-02-28T07:14:49.218Z,134.30
2019-02-28T07:17:13.534Z,125.13
2019-02-28T07:19:40.659Z,131.87
2019-02-28T07:22:07.781Z,129.07
2019-02-28T07:24:37.605Z,134.17
2019-02-28T07:27:05.751Z,140.00
2019-02-28T07:29:32.816Z,128.57
2019-02-28T07:32:01.313Z,125.57
2019-02-28T07:34:28.596Z,126.57
2019-02-28T07:36:55.681Z,124.17
2019-02-28T07:39:22.767Z,117.63
2019-02-28T07:41:49.892Z,119.80
2019-02-28T07:44:21.202Z,109.77
2019-02-28T07:46:45.973Z,112.47
2019-02-28T07:49:13.107Z,122.50
2019-02-28T07:51:40.162Z,109.20
2019-02-28T07:54:07.268Z,126.40
2019-02-28T07:56:34.334Z,100.93
2019-02-28T07:59:05.314Z,106.00
2019-02-28T08:01:30.397Z,108.43
2019-02-28T08:03:57.568Z,113.90
2019-02-28T08:06:24.671Z,108.83
2019-02-28T08:08:51.757Z,105.50
2019-02-28T08:11:19.973Z,113.23
2019-02-28T08:13:47.737Z,108.20
2019-02-28T08:16:20.814Z,116.03
2019-02-28T08:18:51.093Z,106.57
2019-02-28T08:21:16.911Z,105.57
2019-02-28T08:23:44.039Z,104.03
2019-02-28T08:26:11.209Z,106.33
2019-02-28T08:28:40.270Z,101.83
2019-02-28T08:31:07.384Z,105.30
2019-02-28T08:33:34.400Z,103.90
2019-02-28T08:36:11.521Z,105.70
2019-02-28T08:38:36.325Z,104.63
2019-02-28T08:41:03.422Z,103.90
2019-02-28T08:43:30.520Z,101.53
2019-02-28T08:45:57.659Z,112.53
2019-02-28T08:49:27.871Z,104.07
2019-02-28T08:51:55.005Z,93.27
2019-02-28T08:54:26.125Z,106.77
2019-02-28T08:56:53.116Z,112.37
2019-02-28T08:59:22.574Z,95.07
2019-02-28T09:01:49.186Z,107.03
2019-02-28T09:04:16.283Z,87.87
2019-02-28T09:06:47.696Z,91.90
2019-02-28T09:09:14.783Z,95.93
2019-02-28T09:11:41.960Z,107.13
2019-02-28T09:14:10.394Z,98.90
2019-02-28T09:16:39.705Z,99.20
2019-02-28T09:19:06.557Z,101.93
2019-02-28T09:21:33.611Z,100.23
2019-02-28T09:24:00.834Z,98.03
2019-02-28T09:26:28.303Z,96.80
2019-02-28T09:28:56.981Z,94.50
2019-02-28T09:31:24.088Z,100.57
2019-02-28T09:33:51.164Z,97.70
2019-02-28T09:36:20.829Z,92.53
2019-02-28T09:38:47.232Z,95.80
2019-02-28T09:41:14.288Z,91.23
2019-02-28T09:43:41.576Z,94.53
2019-02-28T09:46:09.154Z,91.63
2019-02-28T09:48:37.085Z,93.03
2019-02-28T09:51:42.575Z,86.13
2019-02-28T09:54:09.698Z,87.67
2019-02-28T09:56:36.780Z,85.93
2019-02-28T09:59:03.975Z,91.70
2019-02-28T10:01:32.297Z,87.00
2019-02-28T10:03:59.397Z,108.57
2019-02-28T10:06:26.435Z,81.63
2019-02-28T10:08:53.519Z,84.97
2019-02-28T10:11:21.797Z,84.07
2019-02-28T10:13:49.607Z,80.47
2019-02-28T10:16:18.062Z,83.40
2019-02-28T10:18:45.382Z,83.30
2019-02-28T10:21:12.517Z,85.90
2019-02-28T10:23:39.682Z,89.73
2019-02-28T10:26:06.873Z,91.53
2019-02-28T10:28:35.352Z,84.83
2019-02-28T10:31:02.749Z,82.87
2019-02-28T10:33:29.855Z,87.50
2019-02-28T10:36:00.487Z,82.80
2019-02-28T10:38:29.516Z,87.13
2019-02-28T10:40:56.552Z,84.80
2019-02-28T10:43:23.626Z,94.93
2019-02-28T10:45:51.026Z,93.73
2019-02-28T10:48:18.172Z,94.90
2019-02-28T10:50:45.224Z,90.13
2019-02-28T10:53:12.282Z,89.53
2019-02-28T10:55:39.773Z,87.23
2019-02-28T10:58:15.479Z,89.37
2019-02-28T11:00:43.684Z,95.17
2019-02-28T11:03:10.848Z,97.07
2019-02-28T11:05:39.655Z,96.70
2019-02-28T11:08:09.725Z,103.13
2019-02-28T11:10:38.658Z,99.67
2019-02-28T11:13:10.200Z,101.53
2019-02-28T11:15:37.366Z,109.63
2019-02-28T11:18:08.608Z,100.90
2019-02-28T11:20:34.201Z,107.40
2019-02-28T11:23:01.504Z,104.90
2019-02-28T11:25:28.809Z,107.10
2019-02-28T11:27:55.918Z,100.90
2019-02-28T11:30:23.824Z,104.63
2019-02-28T11:32:50.921Z,101.20
2019-02-28T11:35:20.141Z,106.67
2019-02-28T11:37:47.487Z,98.87
2019-02-28T11:40:16.713Z,105.73
2019-02-28T11:42:43.799Z,105.93
2019-02-28T11:45:13.390Z,103.40
2019-02-28T11:47:42.657Z,95.80
2019-02-28T11:50:10.454Z,96.93
2019-02-28T11:52:37.588Z,91.97
2019-02-28T11:55:05.831Z,93.77
2019-02-28T11:57:32.879Z,93.17
2019-02-28T12:00:02.340Z,95.93
2019-02-28T12:02:53.307Z,96.67
2019-02-28T12:05:17.200Z,89.00
2019-02-28T12:07:50.360Z,91.60
2019-02-28T12:10:17.847Z,82.70
2019-02-28T12:12:45.413Z,90.97
2019-02-28T12:15:13.931Z,83.10
2019-02-28T12:17:41.040Z,68.13
2019-02-28T12:20:09.839Z,73.83
2019-02-28T12:22:36.968Z,68.73
2019-02-28T12:25:07.587Z,72.40
2019-02-28T12:27:34.371Z,70.43
2019-02-28T12:30:01.444Z,68.00
2019-02-28T12:32:28.488Z,64.50
2019-02-28T12:34:55.546Z,67.83
2019-02-28T12:37:23.124Z,68.03
2019-02-28T12:39:50.453Z,66.47
2019-02-28T12:42:17.534Z,72.17
2019-02-28T12:44:46.284Z,78.60
2019-02-28T12:47:17.365Z,71.80
2019-02-28T12:49:50.896Z,77.53
2019-02-28T12:52:17.966Z,76.17
2019-02-28T12:54:45.079Z,72.70
2019-02-28T12:57:13.052Z,81.20
2019-02-28T13:00:19.843Z,89.37
2019-02-28T13:03:09.175Z,100.87
2019-02-28T13:05:36.382Z,87.37
2019-02-28T13:08:05.782Z,91.90
2019-02-28T13:11:26.818Z,93.60
2019-02-28T13:13:53.931Z,98.17
2019-02-28T13:16:21.424Z,118.03
2019-02-28T13:18:48.746Z,126.10
2019-02-28T13:21:15.863Z,129.37
2019-02-28T13:23:42.978Z,120.13
2019-02-28T13:26:10.262Z,104.80
2019-02-28T13:28:37.333Z,99.70
2019-02-28T13:31:06.985Z,110.30
2019-02-28T13:33:34.058Z,98.90
2019-02-28T13:36:01.322Z,110.17
2019-02-28T13:38:28.442Z,95.77
2019-02-28T13:40:55.571Z,98.83
2019-02-28T13:43:22.924Z,97.77
2019-02-28T13:45:50.778Z,92.40
2019-02-28T13:48:26.159Z,77.87
2019-02-28T13:50:48.257Z,88.10
2019-02-28T13:53:17.674Z,98.13
2019-02-28T13:55:44.368Z,96.47
2019-02-28T13:58:11.489Z,78.53
2019-02-28T14:00:43.977Z,78.00
2019-02-28T14:03:09.619Z,83.57
2019-02-28T14:05:40.912Z,70.30
2019-02-28T14:08:09.738Z,82.57
2019-02-28T14:10:34.745Z,70.07
2019-02-28T14:13:01.969Z,73.63
2019-02-28T14:15:34.936Z,69.53
2019-02-28T14:18:02.297Z,72.30
2019-02-28T14:21:03.106Z,64.57
2019-02-28T14:23:29.596Z,59.00
2019-02-28T14:26:31.095Z,61.03
2019-02-28T14:28:58.366Z,62.63
2019-02-28T14:31:25.423Z,57.30
2019-02-28T14:33:54.392Z,65.30
2019-02-28T14:36:21.489Z,54.87
2019-02-28T14:38:48.802Z,54.37
2019-02-28T14:41:15.852Z,62.07
2019-02-28T14:43:43.029Z,57.03
2019-02-28T14:46:10.257Z,53.07
2019-02-28T14:48:39.931Z,48.30
2019-02-28T14:51:06.319Z,45.67
2019-02-28T14:53:33.450Z,46.17
2019-02-28T14:56:00.507Z,52.43
2019-02-28T14:58:27.791Z,45.50
2019-02-28T15:00:55.032Z,48.47
2019-02-28T15:03:22.106Z,40.90
2019-02-28T15:05:49.200Z,44.97
2019-02-28T15:08:16.298Z,41.93
2019-02-28T15:10:43.329Z,42.43
2019-02-28T15:13:10.439Z,46.17
2019-02-28T15:15:37.580Z,51.07
2019-02-28T15:18:04.680Z,67.40
2019-02-28T15:20:32.957Z,43.60
2019-02-28T15:23:00.523Z,37.80
2019-02-28T15:25:27.637Z,41.47
2019-02-28T15:27:54.762Z,34.97
2019-02-28T15:30:24.395Z,33.30
2019-02-28T15:32:54.298Z,39.93
2019-02-28T15:35:20.633Z,39.37
2019-02-28T15:37:47.698Z,31.17
2019-02-28T15:40:24.527Z,39.43
2019-02-28T15:42:50.906Z,27.73
2019-02-28T15:45:18.010Z,36.57
2019-02-28T15:47:45.192Z,32.07
2019-02-28T15:50:13.540Z,31.70
2019-02-28T15:52:42.383Z,27.17
2019-02-28T15:55:10.653Z,26.23
2019-02-28T15:57:38.222Z,26.23
2019-02-28T16:00:06.962Z,21.57
2019-02-28T16:02:34.052Z,27.13
2019-02-28T16:05:05.470Z,29.03
2019-02-28T16:07:33.373Z,23.10
2019-02-28T16:09:59.215Z,24.57
2019-02-28T16:12:26.491Z,23.23
2019-02-28T16:14:53.542Z,22.77
2019-02-28T16:17:20.796Z,25.70
2019-02-28T16:19:47.873Z,19.60
2019-02-28T16:22:18.210Z,23.73
2019-02-28T16:24:44.108Z,20.30
2019-02-28T16:27:11.255Z,19.47
2019-02-28T16:29:38.648Z,18.00
2019-02-28T16:32:05.745Z,22.17
2019-02-28T16:34:32.982Z,20.73
2019-02-28T16:37:01.009Z,22.93
2019-02-28T16:39:29.093Z,12.83
2019-02-28T16:41:56.143Z,23.90
2019-02-28T16:44:23.328Z,22.17
2019-02-28T16:46:50.900Z,18.67
2019-02-28T16:49:18.179Z,15.10
2019-02-28T16:51:45.296Z,19.83
2019-02-28T16:54:12.458Z,19.53
2019-02-28T16:56:39.549Z,20.83
2019-02-28T16:59:06.689Z,17.70
2019-02-28T17:01:33.756Z,16.53
2019-02-28T17:04:00.820Z,14.70
2019-02-28T17:06:28.122Z,18.57
2019-02-28T17:09:20.683Z,22.17
2019-02-28T17:12:09.312Z,20.73
2019-02-28T17:14:36.384Z,17.43
2019-02-28T17:17:26.023Z,16.40
2019-02-28T17:19:53.098Z,15.27
2019-02-28T17:22:20.166Z,17.03
2019-02-28T17:24:47.304Z,20.83
2019-02-28T17:27:28.359Z,22.77
2019-02-28T17:30:28.208Z,16.67
2019-02-28T17:32:55.428Z,19.80
2019-02-28T17:35:22.496Z,27.80
2019-02-28T17:38:44.888Z,18.40
2019-02-28T17:41:13.007Z,17.07
2019-02-28T17:43:40.294Z,26.40
2019-02-28T17:46:09.158Z,19.40
2019-02-28T17:49:12.195Z,14.87
2019-02-28T17:52:23.036Z,18.30
2019-02-28T17:55:50.070Z,17.23
2019-02-28T17:58:43.946Z,25.30
2019-02-28T18:01:48.923Z,17.20
2019-02-28T18:04:56.083Z,18.90
2019-02-28T18:07:49.331Z,20.50
2019-02-28T18:10:48.262Z,22.10
2019-02-28T18:13:45.107Z,20.23
2019-02-28T18:16:41.359Z,21.90
2019-02-28T18:19:37.251Z,25.07
2019-02-28T18:22:48.756Z,21.80
2019-02-28T18:25:52.322Z,21.33
2019-02-28T18:29:03.601Z,29.00
2019-02-28T18:31:30.672Z,20.60
2019-02-28T18:34:00.759Z,20.63
2019-02-28T18:36:29.606Z,13.97
2019-02-28T18:38:57.157Z,18.93
2019-02-28T18:41:24.249Z,22.10
2019-02-28T18:43:51.543Z,18.20
2019-02-28T18:46:18.624Z,16.57
2019-02-28T18:48:45.725Z,17.17
2019-02-28T18:51:12.900Z,18.60
2019-02-28T18:53:39.997Z,19.77
2019-02-28T18:56:07.061Z,20.57
2019-02-28T18:58:34.193Z,19.83
2019-02-28T19:01:04.145Z,20.23
2019-02-28T19:03:31.209Z,15.90
2019-02-28T19:05:58.323Z,17.40
2019-02-28T19:08:25.378Z,18.87
2019-02-28T19:10:52.529Z,16.90
2019-02-28T19:13:19.618Z,22.33
2019-02-28T19:15:46.805Z,21.27
2019-02-28T19:18:14.005Z,16.70
2019-02-28T19:20:41.097Z,17.77
2019-02-28T19:23:08.168Z,22.37
2019-02-28T19:25:35.256Z,14.23
2019-02-28T19:28:02.482Z,22.13
2019-02-28T19:30:29.627Z,20.73
2019-02-28T19:32:56.879Z,19.40
2019-02-28T19:35:23.930Z,21.20
2019-02-28T19:37:51.322Z,18.70
2019-02-28T19:40:18.386Z,16.73
2019-02-28T19:42:45.503Z,22.10
2019-02-28T19:45:14.151Z,18.77
2019-02-28T19:47:41.258Z,20.87
2019-02-28T19:50:09.371Z,24.77
2019-02-28T19:52:36.509Z,22.67
2019-02-28T19:55:04.199Z,14.77
2019-02-28T19:57:31.277Z,20.10
2019-02-28T19:59:58.414Z,15.00
2019-02-28T20:02:25.469Z,13.27
2019-02-28T20:04:53.685Z,17.20
2019-02-28T20:07:22.126Z,21.10
2019-02-28T20:09:49.210Z,17.90
2019-02-28T20:12:16.289Z,20.57
2019-02-28T20:14:43.384Z,24.80
2019-02-28T20:17:10.479Z,22.03
2019-02-28T20:19:37.575Z,23.77
2019-02-28T20:22:04.692Z,22.37
2019-02-28T20:24:31.904Z,20.33
2019-02-28T20:26:59.041Z,20.87
2019-02-28T20:29:26.569Z,20.23
2019-02-28T20:31:53.660Z,24.43
2019-02-28T20:34:20.911Z,24.17
2019-02-28T20:36:48.132Z,27.30
2019-02-28T20:39:15.395Z,26.63
2019-02-28T20:41:42.524Z,30.57
2019-02-28T20:44:09.731Z,26.87
2019-02-28T20:46:36.861Z,22.60
2019-02-28T20:49:04.016Z,27.67
2019-02-28T20:51:31.131Z,22.63
2019-02-28T20:53:58.434Z,27.63
2019-02-28T20:56:25.576Z,27.33
2019-02-28T20:58:53.009Z,23.77
2019-02-28T21:01:20.115Z,32.43
2019-02-28T21:03:47.222Z,31.67
2019-02-28T21:06:36.539Z,31.07
2019-02-28T21:09:06.292Z,33.37
2019-02-28T21:11:33.405Z,33.93
2019-02-28T21:14:03.498Z,29.77
2019-02-28T21:16:30.589Z,29.13
2019-02-28T21:18:58.800Z,33.43
2019-02-28T21:21:25.993Z,31.60
2019-02-28T21:23:53.113Z,27.03
2019-02-28T21:26:20.270Z,32.87
2019-02-28T21:28:47.489Z,32.37
2019-02-28T21:31:14.618Z,31.67
2019-02-28T21:33:41.741Z,31.50
2019-02-28T21:36:09.173Z,32.97
2019-02-28T21:38:36.344Z,31.07
2019-02-28T21:41:03.720Z,30.37
2019-02-28T21:43:30.804Z,29.40
2019-02-28T21:45:57.907Z,29.10
2019-02-28T21:48:24.978Z,31.60
2019-02-28T21:50:52.727Z,34.40
2019-02-28T21:53:19.823Z,35.57
2019-02-28T21:55:46.885Z,38.33
2019-02-28T21:58:14.054Z,35.73
2019-02-28T22:00:41.192Z,35.33
2019-02-28T22:03:08.292Z,32.30
2019-02-28T22:05:35.519Z,34.93
2019-02-28T22:08:04.428Z,34.33
2019-02-28T22:10:31.603Z,41.17
2019-02-28T22:12:59.749Z,30.53
2019-02-28T22:15:27.182Z,34.60
2019-02-28T22:17:54.269Z,37.63
2019-02-28T22:20:21.328Z,38.50
2019-02-28T22:22:48.534Z,31.07
2019-02-28T22:25:15.692Z,33.43
2019-02-28T22:27:43.392Z,36.37
2019-02-28T22:30:37.768Z,27.13
2019-02-28T22:33:07.381Z,30.93
2019-02-28T22:39:08.240Z,29.13
2019-02-28T22:41:35.352Z,33.80
2019-02-28T22:44:03.025Z,36.53
2019-02-28T22:46:30.131Z,34.73
2019-02-28T22:48:57.356Z,31.57
2019-02-28T22:51:24.497Z,30.07
2019-02-28T22:53:51.788Z,34.37
2019-02-28T22:56:18.855Z,32.77
2019-02-28T22:59:04.607Z,27.57
2019-02-28T23:01:33.843Z,31.87
2019-02-28T23:04:00.917Z,30.40
2019-02-28T23:06:28.027Z,31.67
2019-02-28T23:08:56.241Z,28.20
2019-02-28T23:11:23.317Z,32.73
2019-02-28T23:13:50.446Z,30.50
2019-02-28T23:16:17.625Z,28.07
2019-02-28T23:18:44.717Z,31.43
2019-02-28T23:21:11.841Z,30.33
2019-02-28T23:23:38.930Z,31.80
2019-02-28T23:26:13.517Z,28.40
2019-02-28T23:28:54.087Z,31.33
2019-02-28T23:32:08.282Z,30.40
2019-02-28T23:34:38.217Z,28.47
2019-02-28T23:37:05.323Z,28.97
2019-02-28T23:39:32.557Z,24.43
2019-02-28T23:41:59.639Z,24.87
2019-02-28T23:44:26.718Z,29.23
2019-02-28T23:46:53.850Z,26.70
2019-02-28T23:49:20.908Z,24.47
2019-02-28T23:51:47.973Z,28.33
2019-02-28T23:54:15.079Z,26.80
2019-02-28T23:56:42.196Z,30.27
2019-02-28T23:59:09.312Z,34.30
